sensor_id;sensor_type;location;lat;lon;timestamp;P1;durP1;ratioP1;P2;durP2;ratioP2
79401;SDS011;68857;47.916;106.940;2024-01-30T00:02:13;55.15;;;24.92;;
79401;SDS011;68857;47.916;106.940;2024-01-30T00:04:39;62.25;;;28.58;;
79401;SDS011;68857;47.916;106.940;2024-01-30T00:07:05;48.75;;;23.67;;
79401;SDS011;68857;47.916;106.940;2024-01-30T00:09:32;50.88;;;21.65;;
79401;SDS011;68857;47.916;106.940;2024-01-30T00:11:59;57.80;;;24.20;;
79401;SDS011;68857;47.916;106.940;2024-01-30T00:14:25;68.50;;;29.95;;
79401;SDS011;68857;47.916;106.940;2024-01-30T00:16:52;74.90;;;29.20;;
79401;SDS011;68857;47.916;106.940;2024-01-30T00:19:18;98.18;;;35.75;;
79401;SDS011;68857;47.916;106.940;2024-01-30T00:21:45;88.55;;;34.55;;
79401;SDS011;68857;47.916;106.940;2024-01-30T00:24:11;57.30;;;25.02;;
79401;SDS011;68857;47.916;106.940;2024-01-30T00:26:38;95.38;;;34.67;;
79401;SDS011;68857;47.916;106.940;2024-01-30T00:29:04;78.15;;;32.78;;
79401;SDS011;68857;47.916;106.940;2024-01-30T00:31:31;63.47;;;29.17;;
79401;SDS011;68857;47.916;106.940;2024-01-30T00:33:57;82.40;;;28.60;;
79401;SDS011;68857;47.916;106.940;2024-01-30T00:36:23;53.90;;;25.88;;
79401;SDS011;68857;47.916;106.940;2024-01-30T00:38:50;74.88;;;26.40;;
79401;SDS011;68857;47.916;106.940;2024-01-30T00:41:19;108.43;;;38.58;;
79401;SDS011;68857;47.916;106.940;2024-01-30T00:43:46;84.63;;;32.92;;
79401;SDS011;68857;47.916;106.940;2024-01-30T00:46:12;69.57;;;30.92;;
79401;SDS011;68857;47.916;106.940;2024-01-30T00:48:38;135.75;;;47.13;;
79401;SDS011;68857;47.916;106.940;2024-01-30T00:51:05;66.65;;;28.58;;
79401;SDS011;68857;47.916;106.940;2024-01-30T00:53:31;72.25;;;28.52;;
79401;SDS011;68857;47.916;106.940;2024-01-30T00:55:58;95.60;;;33.42;;
79401;SDS011;68857;47.916;106.940;2024-01-30T00:58:24;94.55;;;35.75;;
79401;SDS011;68857;47.916;106.940;2024-01-30T01:00:50;57.15;;;22.58;;
79401;SDS011;68857;47.916;106.940;2024-01-30T01:03:17;84.90;;;29.95;;
79401;SDS011;68857;47.916;106.940;2024-01-30T01:05:43;68.97;;;28.08;;
79401;SDS011;68857;47.916;106.940;2024-01-30T01:08:09;85.63;;;30.38;;
79401;SDS011;68857;47.916;106.940;2024-01-30T01:10:36;80.35;;;32.80;;
79401;SDS011;68857;47.916;106.940;2024-01-30T01:13:02;68.32;;;27.52;;
79401;SDS011;68857;47.916;106.940;2024-01-30T01:15:29;68.22;;;27.50;;
79401;SDS011;68857;47.916;106.940;2024-01-30T01:17:55;56.42;;;25.02;;
79401;SDS011;68857;47.916;106.940;2024-01-30T01:20:21;55.58;;;22.92;;
79401;SDS011;68857;47.916;106.940;2024-01-30T01:22:48;73.82;;;31.08;;
79401;SDS011;68857;47.916;106.940;2024-01-30T01:25:14;58.08;;;24.75;;
79401;SDS011;68857;47.916;106.940;2024-01-30T01:27:41;49.92;;;26.02;;
79401;SDS011;68857;47.916;106.940;2024-01-30T01:30:09;58.83;;;19.38;;
79401;SDS011;68857;47.916;106.940;2024-01-30T01:32:36;49.53;;;20.95;;
79401;SDS011;68857;47.916;106.940;2024-01-30T01:35:03;48.40;;;20.52;;
79401;SDS011;68857;47.916;106.940;2024-01-30T01:37:33;42.42;;;17.20;;
79401;SDS011;68857;47.916;106.940;2024-01-30T01:39:59;47.90;;;17.08;;
79401;SDS011;68857;47.916;106.940;2024-01-30T01:42:26;63.00;;;20.77;;
79401;SDS011;68857;47.916;106.940;2024-01-30T01:44:52;39.13;;;18.80;;
79401;SDS011;68857;47.916;106.940;2024-01-30T01:47:18;35.20;;;16.83;;
79401;SDS011;68857;47.916;106.940;2024-01-30T01:49:45;56.35;;;21.17;;
79401;SDS011;68857;47.916;106.940;2024-01-30T01:52:11;69.70;;;26.02;;
79401;SDS011;68857;47.916;106.940;2024-01-30T01:54:37;60.15;;;24.48;;
79401;SDS011;68857;47.916;106.940;2024-01-30T01:57:04;52.97;;;21.98;;
79401;SDS011;68857;47.916;106.940;2024-01-30T01:59:30;58.13;;;19.92;;
79401;SDS011;68857;47.916;106.940;2024-01-30T02:01:57;75.03;;;27.33;;
79401;SDS011;68857;47.916;106.940;2024-01-30T02:04:23;67.10;;;26.00;;
79401;SDS011;68857;47.916;106.940;2024-01-30T02:06:51;66.68;;;28.35;;
79401;SDS011;68857;47.916;106.940;2024-01-30T02:09:17;84.93;;;28.08;;
79401;SDS011;68857;47.916;106.940;2024-01-30T02:11:44;87.28;;;33.85;;
79401;SDS011;68857;47.916;106.940;2024-01-30T02:14:11;80.68;;;30.42;;
79401;SDS011;68857;47.916;106.940;2024-01-30T02:16:37;47.78;;;23.15;;
79401;SDS011;68857;47.916;106.940;2024-01-30T02:19:03;84.45;;;32.33;;
79401;SDS011;68857;47.916;106.940;2024-01-30T02:21:30;59.67;;;23.88;;
79401;SDS011;68857;47.916;106.940;2024-01-30T02:23:57;46.30;;;21.58;;
79401;SDS011;68857;47.916;106.940;2024-01-30T02:26:24;71.03;;;29.55;;
79401;SDS011;68857;47.916;106.940;2024-01-30T02:28:51;64.82;;;22.98;;
79401;SDS011;68857;47.916;106.940;2024-01-30T02:31:17;41.72;;;20.85;;
79401;SDS011;68857;47.916;106.940;2024-01-30T02:33:43;53.13;;;21.17;;
79401;SDS011;68857;47.916;106.940;2024-01-30T02:36:10;79.22;;;23.15;;
79401;SDS011;68857;47.916;106.940;2024-01-30T02:38:36;56.15;;;22.38;;
79401;SDS011;68857;47.916;106.940;2024-01-30T02:41:03;52.92;;;22.27;;
79401;SDS011;68857;47.916;106.940;2024-01-30T02:43:29;66.35;;;20.73;;
79401;SDS011;68857;47.916;106.940;2024-01-30T02:45:55;50.97;;;20.23;;
79401;SDS011;68857;47.916;106.940;2024-01-30T02:48:23;51.45;;;19.80;;
79401;SDS011;68857;47.916;106.940;2024-01-30T02:50:49;42.60;;;15.55;;
79401;SDS011;68857;47.916;106.940;2024-01-30T02:53:16;43.35;;;16.75;;
79401;SDS011;68857;47.916;106.940;2024-01-30T02:55:42;43.53;;;13.77;;
79401;SDS011;68857;47.916;106.940;2024-01-30T02:58:08;32.38;;;13.15;;
79401;SDS011;68857;47.916;106.940;2024-01-30T03:00:35;41.63;;;11.98;;
79401;SDS011;68857;47.916;106.940;2024-01-30T03:03:01;26.08;;;12.80;;
79401;SDS011;68857;47.916;106.940;2024-01-30T03:05:28;41.47;;;18.23;;
79401;SDS011;68857;47.916;106.940;2024-01-30T03:07:54;36.47;;;15.88;;
79401;SDS011;68857;47.916;106.940;2024-01-30T03:10:22;51.60;;;17.08;;
79401;SDS011;68857;47.916;106.940;2024-01-30T03:12:48;56.13;;;18.95;;
79401;SDS011;68857;47.916;106.940;2024-01-30T03:15:14;46.22;;;16.30;;
79401;SDS011;68857;47.916;106.940;2024-01-30T03:17:41;55.47;;;18.33;;
79401;SDS011;68857;47.916;106.940;2024-01-30T03:20:07;51.15;;;19.25;;
79401;SDS011;68857;47.916;106.940;2024-01-30T03:22:34;50.80;;;20.20;;
79401;SDS011;68857;47.916;106.940;2024-01-30T03:25:00;53.63;;;16.85;;
79401;SDS011;68857;47.916;106.940;2024-01-30T03:27:27;55.50;;;19.67;;
79401;SDS011;68857;47.916;106.940;2024-01-30T03:29:54;50.95;;;16.58;;
79401;SDS011;68857;47.916;106.940;2024-01-30T03:32:20;31.85;;;12.85;;
79401;SDS011;68857;47.916;106.940;2024-01-30T03:34:46;41.10;;;17.67;;
79401;SDS011;68857;47.916;106.940;2024-01-30T03:37:13;40.67;;;16.83;;
79401;SDS011;68857;47.916;106.940;2024-01-30T03:39:39;49.45;;;17.63;;
79401;SDS011;68857;47.916;106.940;2024-01-30T03:42:06;45.35;;;17.85;;
79401;SDS011;68857;47.916;106.940;2024-01-30T03:44:32;40.15;;;17.63;;
79401;SDS011;68857;47.916;106.940;2024-01-30T03:46:59;53.20;;;17.55;;
79401;SDS011;68857;47.916;106.940;2024-01-30T03:49:25;46.65;;;16.55;;
79401;SDS011;68857;47.916;106.940;2024-01-30T03:51:51;42.28;;;16.80;;
79401;SDS011;68857;47.916;106.940;2024-01-30T03:54:18;53.80;;;17.40;;
79401;SDS011;68857;47.916;106.940;2024-01-30T03:56:44;36.60;;;15.63;;
79401;SDS011;68857;47.916;106.940;2024-01-30T03:59:11;42.97;;;14.25;;
79401;SDS011;68857;47.916;106.940;2024-01-30T04:01:37;39.95;;;16.65;;
79401;SDS011;68857;47.916;106.940;2024-01-30T04:04:03;37.42;;;15.65;;
79401;SDS011;68857;47.916;106.940;2024-01-30T04:06:30;36.15;;;12.73;;
79401;SDS011;68857;47.916;106.940;2024-01-30T04:08:56;37.08;;;14.73;;
79401;SDS011;68857;47.916;106.940;2024-01-30T04:11:23;43.22;;;16.10;;
79401;SDS011;68857;47.916;106.940;2024-01-30T04:13:49;34.17;;;14.57;;
79401;SDS011;68857;47.916;106.940;2024-01-30T04:16:19;42.78;;;15.77;;
79401;SDS011;68857;47.916;106.940;2024-01-30T04:18:46;48.83;;;16.83;;
79401;SDS011;68857;47.916;106.940;2024-01-30T04:21:12;38.35;;;14.80;;
79401;SDS011;68857;47.916;106.940;2024-01-30T04:23:39;36.25;;;17.10;;
79401;SDS011;68857;47.916;106.940;2024-01-30T04:26:06;44.50;;;13.60;;
79401;SDS011;68857;47.916;106.940;2024-01-30T04:28:32;42.50;;;16.48;;
79401;SDS011;68857;47.916;106.940;2024-01-30T04:30:59;34.42;;;15.43;;
79401;SDS011;68857;47.916;106.940;2024-01-30T04:33:25;46.90;;;16.63;;
79401;SDS011;68857;47.916;106.940;2024-01-30T04:35:51;40.33;;;15.35;;
79401;SDS011;68857;47.916;106.940;2024-01-30T04:38:18;46.90;;;17.70;;
79401;SDS011;68857;47.916;106.940;2024-01-30T04:40:44;41.13;;;16.77;;
79401;SDS011;68857;47.916;106.940;2024-01-30T04:43:10;44.42;;;17.65;;
79401;SDS011;68857;47.916;106.940;2024-01-30T04:45:37;48.75;;;15.77;;
79401;SDS011;68857;47.916;106.940;2024-01-30T04:48:03;47.20;;;16.88;;
79401;SDS011;68857;47.916;106.940;2024-01-30T04:50:30;47.50;;;17.85;;
79401;SDS011;68857;47.916;106.940;2024-01-30T04:52:56;46.30;;;16.15;;
79401;SDS011;68857;47.916;106.940;2024-01-30T04:55:22;39.20;;;18.13;;
79401;SDS011;68857;47.916;106.940;2024-01-30T04:57:49;36.88;;;17.20;;
79401;SDS011;68857;47.916;106.940;2024-01-30T05:00:15;39.75;;;13.52;;
79401;SDS011;68857;47.916;106.940;2024-01-30T05:02:42;41.47;;;15.32;;
79401;SDS011;68857;47.916;106.940;2024-01-30T05:05:08;51.05;;;19.27;;
79401;SDS011;68857;47.916;106.940;2024-01-30T05:07:36;41.13;;;16.63;;
79401;SDS011;68857;47.916;106.940;2024-01-30T05:10:02;54.60;;;19.33;;
79401;SDS011;68857;47.916;106.940;2024-01-30T05:12:29;41.42;;;16.25;;
79401;SDS011;68857;47.916;106.940;2024-01-30T05:14:55;46.33;;;18.67;;
79401;SDS011;68857;47.916;106.940;2024-01-30T05:17:21;51.03;;;19.55;;
79401;SDS011;68857;47.916;106.940;2024-01-30T05:19:48;41.63;;;16.05;;
79401;SDS011;68857;47.916;106.940;2024-01-30T05:22:14;49.70;;;18.10;;
79401;SDS011;68857;47.916;106.940;2024-01-30T05:24:43;43.75;;;17.40;;
79401;SDS011;68857;47.916;106.940;2024-01-30T05:27:09;47.70;;;20.83;;
79401;SDS011;68857;47.916;106.940;2024-01-30T05:29:36;51.88;;;18.35;;
79401;SDS011;68857;47.916;106.940;2024-01-30T05:32:03;45.42;;;18.48;;
79401;SDS011;68857;47.916;106.940;2024-01-30T05:34:30;45.20;;;19.38;;
79401;SDS011;68857;47.916;106.940;2024-01-30T05:36:57;45.13;;;16.50;;
79401;SDS011;68857;47.916;106.940;2024-01-30T05:39:23;39.65;;;15.05;;
79401;SDS011;68857;47.916;106.940;2024-01-30T05:41:49;45.47;;;18.77;;
79401;SDS011;68857;47.916;106.940;2024-01-30T05:44:16;37.70;;;15.38;;
79401;SDS011;68857;47.916;106.940;2024-01-30T05:46:42;40.00;;;16.42;;
79401;SDS011;68857;47.916;106.940;2024-01-30T05:49:08;53.60;;;16.20;;
79401;SDS011;68857;47.916;106.940;2024-01-30T05:51:35;46.97;;;19.38;;
79401;SDS011;68857;47.916;106.940;2024-01-30T05:54:01;58.33;;;19.35;;
79401;SDS011;68857;47.916;106.940;2024-01-30T05:56:29;64.78;;;24.60;;
79401;SDS011;68857;47.916;106.940;2024-01-30T05:58:55;66.53;;;22.13;;
79401;SDS011;68857;47.916;106.940;2024-01-30T06:01:21;73.32;;;24.35;;
79401;SDS011;68857;47.916;106.940;2024-01-30T06:03:48;56.55;;;21.48;;
79401;SDS011;68857;47.916;106.940;2024-01-30T06:06:14;59.15;;;24.90;;
79401;SDS011;68857;47.916;106.940;2024-01-30T06:08:41;69.30;;;27.00;;
79401;SDS011;68857;47.916;106.940;2024-01-30T06:11:09;77.97;;;26.05;;
79401;SDS011;68857;47.916;106.940;2024-01-30T06:13:36;79.88;;;31.88;;
79401;SDS011;68857;47.916;106.940;2024-01-30T06:16:03;83.63;;;26.35;;
79401;SDS011;68857;47.916;106.940;2024-01-30T06:18:29;90.30;;;27.10;;
79401;SDS011;68857;47.916;106.940;2024-01-30T06:20:56;88.55;;;29.27;;
79401;SDS011;68857;47.916;106.940;2024-01-30T06:23:22;69.30;;;24.48;;
79401;SDS011;68857;47.916;106.940;2024-01-30T06:25:49;66.15;;;22.45;;
79401;SDS011;68857;47.916;106.940;2024-01-30T06:28:15;73.68;;;22.48;;
79401;SDS011;68857;47.916;106.940;2024-01-30T06:30:42;73.05;;;24.50;;
79401;SDS011;68857;47.916;106.940;2024-01-30T06:33:11;64.43;;;22.63;;
79401;SDS011;68857;47.916;106.940;2024-01-30T06:35:38;57.25;;;22.05;;
79401;SDS011;68857;47.916;106.940;2024-01-30T06:38:05;71.03;;;24.08;;
79401;SDS011;68857;47.916;106.940;2024-01-30T06:40:32;83.05;;;26.40;;
79401;SDS011;68857;47.916;106.940;2024-01-30T06:42:58;73.13;;;22.58;;
79401;SDS011;68857;47.916;106.940;2024-01-30T06:45:24;66.75;;;26.25;;
79401;SDS011;68857;47.916;106.940;2024-01-30T06:47:51;67.68;;;23.63;;
79401;SDS011;68857;47.916;106.940;2024-01-30T06:50:17;62.67;;;18.42;;
79401;SDS011;68857;47.916;106.940;2024-01-30T06:52:43;58.08;;;22.40;;
79401;SDS011;68857;47.916;106.940;2024-01-30T06:55:10;64.38;;;23.30;;
79401;SDS011;68857;47.916;106.940;2024-01-30T06:57:36;65.75;;;23.38;;
79401;SDS011;68857;47.916;106.940;2024-01-30T07:00:03;57.53;;;20.48;;
79401;SDS011;68857;47.916;106.940;2024-01-30T07:02:29;55.85;;;18.50;;
79401;SDS011;68857;47.916;106.940;2024-01-30T07:04:56;71.30;;;24.45;;
79401;SDS011;68857;47.916;106.940;2024-01-30T07:07:22;56.20;;;19.52;;
79401;SDS011;68857;47.916;106.940;2024-01-30T07:09:48;59.30;;;22.70;;
79401;SDS011;68857;47.916;106.940;2024-01-30T07:12:17;53.80;;;20.38;;
79401;SDS011;68857;47.916;106.940;2024-01-30T07:14:44;48.53;;;20.05;;
79401;SDS011;68857;47.916;106.940;2024-01-30T07:17:10;48.50;;;15.57;;
79401;SDS011;68857;47.916;106.940;2024-01-30T07:19:37;60.30;;;18.58;;
79401;SDS011;68857;47.916;106.940;2024-01-30T07:22:03;55.63;;;18.38;;
79401;SDS011;68857;47.916;106.940;2024-01-30T07:24:29;48.55;;;18.90;;
79401;SDS011;68857;47.916;106.940;2024-01-30T07:26:56;51.08;;;19.77;;
79401;SDS011;68857;47.916;106.940;2024-01-30T07:29:22;38.97;;;15.50;;
79401;SDS011;68857;47.916;106.940;2024-01-30T07:31:49;39.92;;;14.82;;
79401;SDS011;68857;47.916;106.940;2024-01-30T07:34:15;42.47;;;17.40;;
79401;SDS011;68857;47.916;106.940;2024-01-30T07:36:42;48.90;;;15.68;;
79401;SDS011;68857;47.916;106.940;2024-01-30T07:39:08;53.92;;;15.63;;
79401;SDS011;68857;47.916;106.940;2024-01-30T07:41:35;38.92;;;13.15;;
79401;SDS011;68857;47.916;106.940;2024-01-30T07:44:02;42.83;;;14.65;;
79401;SDS011;68857;47.916;106.940;2024-01-30T07:46:29;40.85;;;13.52;;
79401;SDS011;68857;47.916;106.940;2024-01-30T07:48:55;35.45;;;10.80;;
79401;SDS011;68857;47.916;106.940;2024-01-30T07:51:22;28.65;;;9.73;;
79401;SDS011;68857;47.916;106.940;2024-01-30T07:53:48;34.88;;;12.60;;
79401;SDS011;68857;47.916;106.940;2024-01-30T07:56:15;36.65;;;9.73;;
79401;SDS011;68857;47.916;106.940;2024-01-30T07:58:41;25.70;;;9.85;;
79401;SDS011;68857;47.916;106.940;2024-01-30T08:01:08;24.30;;;10.30;;
79401;SDS011;68857;47.916;106.940;2024-01-30T08:03:34;27.10;;;13.07;;
79401;SDS011;68857;47.916;106.940;2024-01-30T08:06:02;28.02;;;10.32;;
79401;SDS011;68857;47.916;106.940;2024-01-30T08:08:28;23.65;;;9.85;;
79401;SDS011;68857;47.916;106.940;2024-01-30T08:10:55;24.95;;;9.48;;
79401;SDS011;68857;47.916;106.940;2024-01-30T08:13:21;29.08;;;8.98;;
79401;SDS011;68857;47.916;106.940;2024-01-30T08:15:47;31.58;;;11.35;;
79401;SDS011;68857;47.916;106.940;2024-01-30T08:18:14;25.77;;;9.75;;
79401;SDS011;68857;47.916;106.940;2024-01-30T08:20:40;26.17;;;8.07;;
79401;SDS011;68857;47.916;106.940;2024-01-30T08:23:07;19.30;;;9.38;;
79401;SDS011;68857;47.916;106.940;2024-01-30T08:25:33;39.72;;;12.27;;
79401;SDS011;68857;47.916;106.940;2024-01-30T08:27:59;28.52;;;11.10;;
79401;SDS011;68857;47.916;106.940;2024-01-30T08:30:26;21.80;;;8.52;;
79401;SDS011;68857;47.916;106.940;2024-01-30T08:32:52;29.55;;;9.13;;
79401;SDS011;68857;47.916;106.940;2024-01-30T08:35:19;23.80;;;9.68;;
79401;SDS011;68857;47.916;106.940;2024-01-30T08:37:45;21.90;;;9.27;;
79401;SDS011;68857;47.916;106.940;2024-01-30T08:40:11;23.92;;;9.00;;
79401;SDS011;68857;47.916;106.940;2024-01-30T08:42:38;39.42;;;9.75;;
79401;SDS011;68857;47.916;106.940;2024-01-30T08:45:04;29.67;;;9.95;;
79401;SDS011;68857;47.916;106.940;2024-01-30T08:47:31;26.48;;;10.20;;
79401;SDS011;68857;47.916;106.940;2024-01-30T08:49:58;28.35;;;10.70;;
79401;SDS011;68857;47.916;106.940;2024-01-30T08:52:24;31.60;;;8.85;;
79401;SDS011;68857;47.916;106.940;2024-01-30T08:54:51;33.08;;;9.85;;
79401;SDS011;68857;47.916;106.940;2024-01-30T08:57:17;23.75;;;9.98;;
79401;SDS011;68857;47.916;106.940;2024-01-30T08:59:44;31.75;;;11.20;;
79401;SDS011;68857;47.916;106.940;2024-01-30T09:04:38;23.23;;;9.50;;
79401;SDS011;68857;47.916;106.940;2024-01-30T09:07:04;25.97;;;9.80;;
79401;SDS011;68857;47.916;106.940;2024-01-30T09:09:34;23.25;;;6.65;;
79401;SDS011;68857;47.916;106.940;2024-01-30T09:12:00;30.05;;;10.90;;
79401;SDS011;68857;47.916;106.940;2024-01-30T09:14:32;29.25;;;8.60;;
79401;SDS011;68857;47.916;106.940;2024-01-30T09:16:58;23.90;;;8.38;;
79401;SDS011;68857;47.916;106.940;2024-01-30T09:19:25;25.15;;;9.60;;
79401;SDS011;68857;47.916;106.940;2024-01-30T09:21:51;24.95;;;6.80;;
79401;SDS011;68857;47.916;106.940;2024-01-30T09:24:18;24.40;;;9.02;;
79401;SDS011;68857;47.916;106.940;2024-01-30T09:26:44;18.75;;;7.35;;
79401;SDS011;68857;47.916;106.940;2024-01-30T09:29:11;24.85;;;9.95;;
79401;SDS011;68857;47.916;106.940;2024-01-30T09:31:37;23.35;;;7.85;;
79401;SDS011;68857;47.916;106.940;2024-01-30T09:34:03;22.42;;;8.20;;
79401;SDS011;68857;47.916;106.940;2024-01-30T09:36:30;24.83;;;9.32;;
79401;SDS011;68857;47.916;106.940;2024-01-30T09:38:56;27.85;;;9.35;;
79401;SDS011;68857;47.916;106.940;2024-01-30T09:41:23;26.33;;;9.43;;
79401;SDS011;68857;47.916;106.940;2024-01-30T09:43:50;20.63;;;8.80;;
79401;SDS011;68857;47.916;106.940;2024-01-30T09:46:17;25.85;;;9.10;;
79401;SDS011;68857;47.916;106.940;2024-01-30T09:48:44;22.98;;;7.05;;
79401;SDS011;68857;47.916;106.940;2024-01-30T09:51:14;22.45;;;7.75;;
79401;SDS011;68857;47.916;106.940;2024-01-30T09:53:42;28.08;;;7.25;;
79401;SDS011;68857;47.916;106.940;2024-01-30T09:56:14;33.90;;;9.52;;
79401;SDS011;68857;47.916;106.940;2024-01-30T09:58:41;28.38;;;9.98;;
79401;SDS011;68857;47.916;106.940;2024-01-30T10:01:08;36.95;;;11.45;;
79401;SDS011;68857;47.916;106.940;2024-01-30T10:03:34;32.42;;;11.40;;
79401;SDS011;68857;47.916;106.940;2024-01-30T10:06:01;26.30;;;10.43;;
79401;SDS011;68857;47.916;106.940;2024-01-30T10:08:30;25.75;;;9.38;;
79401;SDS011;68857;47.916;106.940;2024-01-30T10:10:56;24.73;;;7.90;;
79401;SDS011;68857;47.916;106.940;2024-01-30T10:13:22;20.17;;;7.60;;
79401;SDS011;68857;47.916;106.940;2024-01-30T10:15:49;22.70;;;6.53;;
79401;SDS011;68857;47.916;106.940;2024-01-30T10:20:43;14.88;;;6.05;;
79401;SDS011;68857;47.916;106.940;2024-01-30T10:23:09;17.35;;;7.40;;
79401;SDS011;68857;47.916;106.940;2024-01-30T10:25:35;13.90;;;6.78;;
79401;SDS011;68857;47.916;106.940;2024-01-30T10:28:02;17.23;;;6.35;;
79401;SDS011;68857;47.916;106.940;2024-01-30T10:30:28;21.77;;;6.68;;
79401;SDS011;68857;47.916;106.940;2024-01-30T10:32:55;19.33;;;8.75;;
79401;SDS011;68857;47.916;106.940;2024-01-30T10:35:21;26.48;;;7.45;;
79401;SDS011;68857;47.916;106.940;2024-01-30T10:37:48;18.40;;;6.38;;
79401;SDS011;68857;47.916;106.940;2024-01-30T10:40:14;19.55;;;6.95;;
79401;SDS011;68857;47.916;106.940;2024-01-30T10:42:44;15.27;;;6.28;;
79401;SDS011;68857;47.916;106.940;2024-01-30T10:45:12;17.98;;;7.20;;
79401;SDS011;68857;47.916;106.940;2024-01-30T10:47:43;24.63;;;8.60;;
79401;SDS011;68857;47.916;106.940;2024-01-30T10:50:10;27.02;;;9.50;;
79401;SDS011;68857;47.916;106.940;2024-01-30T10:52:37;24.33;;;8.20;;
79401;SDS011;68857;47.916;106.940;2024-01-30T10:55:04;19.10;;;8.38;;
79401;SDS011;68857;47.916;106.940;2024-01-30T10:57:34;34.03;;;8.82;;
79401;SDS011;68857;47.916;106.940;2024-01-30T11:00:02;20.98;;;9.43;;
79401;SDS011;68857;47.916;106.940;2024-01-30T11:02:30;32.42;;;10.73;;
79401;SDS011;68857;47.916;106.940;2024-01-30T11:04:58;31.10;;;10.30;;
79401;SDS011;68857;47.916;106.940;2024-01-30T11:07:25;22.30;;;10.93;;
79401;SDS011;68857;47.916;106.940;2024-01-30T11:12:32;23.33;;;9.68;;
79401;SDS011;68857;47.916;106.940;2024-01-30T11:20:20;32.75;;;10.23;;
79401;SDS011;68857;47.916;106.940;2024-01-30T11:22:47;28.42;;;11.07;;
79401;SDS011;68857;47.916;106.940;2024-01-30T11:25:14;23.60;;;10.65;;
79401;SDS011;68857;47.916;106.940;2024-01-30T11:27:41;43.03;;;14.55;;
79401;SDS011;68857;47.916;106.940;2024-01-30T11:30:08;45.00;;;18.15;;
79401;SDS011;68857;47.916;106.940;2024-01-30T11:32:34;45.65;;;15.75;;
79401;SDS011;68857;47.916;106.940;2024-01-30T11:35:03;52.67;;;18.90;;
79401;SDS011;68857;47.916;106.940;2024-01-30T11:37:31;56.80;;;23.60;;
79401;SDS011;68857;47.916;106.940;2024-01-30T11:39:58;57.25;;;22.80;;
79401;SDS011;68857;47.916;106.940;2024-01-30T11:42:24;72.93;;;26.13;;
79401;SDS011;68857;47.916;106.940;2024-01-30T11:44:52;80.18;;;29.38;;
79401;SDS011;68857;47.916;106.940;2024-01-30T11:47:18;75.72;;;29.25;;
79401;SDS011;68857;47.916;106.940;2024-01-30T11:49:45;66.07;;;27.73;;
79401;SDS011;68857;47.916;106.940;2024-01-30T11:52:11;61.05;;;26.60;;
79401;SDS011;68857;47.916;106.940;2024-01-30T11:54:41;58.92;;;20.98;;
79401;SDS011;68857;47.916;106.940;2024-01-30T11:57:07;51.67;;;21.48;;
79401;SDS011;68857;47.916;106.940;2024-01-30T11:59:33;77.18;;;29.90;;
79401;SDS011;68857;47.916;106.940;2024-01-30T12:02:00;60.70;;;25.17;;
79401;SDS011;68857;47.916;106.940;2024-01-30T12:04:30;64.05;;;24.80;;
79401;SDS011;68857;47.916;106.940;2024-01-30T12:06:56;74.43;;;27.23;;
79401;SDS011;68857;47.916;106.940;2024-01-30T12:09:22;51.17;;;19.13;;
79401;SDS011;68857;47.916;106.940;2024-01-30T12:11:49;80.70;;;29.85;;
79401;SDS011;68857;47.916;106.940;2024-01-30T12:14:16;56.45;;;26.73;;
79401;SDS011;68857;47.916;106.940;2024-01-30T12:16:42;93.22;;;33.00;;
79401;SDS011;68857;47.916;106.940;2024-01-30T12:19:09;87.00;;;32.45;;
79401;SDS011;68857;47.916;106.940;2024-01-30T12:21:35;79.95;;;34.00;;
79401;SDS011;68857;47.916;106.940;2024-01-30T12:24:02;81.97;;;30.30;;
79401;SDS011;68857;47.916;106.940;2024-01-30T12:26:28;82.53;;;33.58;;
79401;SDS011;68857;47.916;106.940;2024-01-30T12:28:54;72.07;;;22.85;;
79401;SDS011;68857;47.916;106.940;2024-01-30T12:31:26;83.40;;;34.65;;
79401;SDS011;68857;47.916;106.940;2024-01-30T12:33:53;105.20;;;37.80;;
79401;SDS011;68857;47.916;106.940;2024-01-30T12:36:21;87.32;;;33.10;;
79401;SDS011;68857;47.916;106.940;2024-01-30T12:38:47;71.22;;;30.80;;
79401;SDS011;68857;47.916;106.940;2024-01-30T12:41:14;75.63;;;29.88;;
79401;SDS011;68857;47.916;106.940;2024-01-30T12:43:41;74.03;;;29.38;;
79401;SDS011;68857;47.916;106.940;2024-01-30T12:46:08;83.60;;;32.20;;
79401;SDS011;68857;47.916;106.940;2024-01-30T12:48:34;82.55;;;29.95;;
79401;SDS011;68857;47.916;106.940;2024-01-30T12:51:00;84.20;;;32.47;;
79401;SDS011;68857;47.916;106.940;2024-01-30T12:53:27;105.05;;;37.85;;
79401;SDS011;68857;47.916;106.940;2024-01-30T12:55:53;99.15;;;34.45;;
79401;SDS011;68857;47.916;106.940;2024-01-30T12:58:20;114.13;;;39.60;;
79401;SDS011;68857;47.916;106.940;2024-01-30T13:00:46;82.80;;;31.77;;
79401;SDS011;68857;47.916;106.940;2024-01-30T13:03:12;88.72;;;30.70;;
79401;SDS011;68857;47.916;106.940;2024-01-30T13:05:39;83.78;;;28.25;;
79401;SDS011;68857;47.916;106.940;2024-01-30T13:08:05;77.72;;;32.75;;
79401;SDS011;68857;47.916;106.940;2024-01-30T13:10:32;71.78;;;28.98;;
79401;SDS011;68857;47.916;106.940;2024-01-30T13:12:58;86.05;;;30.77;;
79401;SDS011;68857;47.916;106.940;2024-01-30T13:15:25;117.25;;;41.60;;
79401;SDS011;68857;47.916;106.940;2024-01-30T13:17:51;75.38;;;26.77;;
79401;SDS011;68857;47.916;106.940;2024-01-30T13:20:19;100.43;;;38.22;;
79401;SDS011;68857;47.916;106.940;2024-01-30T13:22:49;74.07;;;30.13;;
79401;SDS011;68857;47.916;106.940;2024-01-30T13:25:15;80.78;;;32.33;;
79401;SDS011;68857;47.916;106.940;2024-01-30T13:27:42;126.72;;;47.38;;
79401;SDS011;68857;47.916;106.940;2024-01-30T13:30:08;92.22;;;36.97;;
79401;SDS011;68857;47.916;106.940;2024-01-30T13:32:35;76.30;;;29.05;;
79401;SDS011;68857;47.916;106.940;2024-01-30T13:35:01;101.05;;;37.35;;
79401;SDS011;68857;47.916;106.940;2024-01-30T13:37:28;96.35;;;36.58;;
79401;SDS011;68857;47.916;106.940;2024-01-30T13:39:55;96.03;;;39.05;;
79401;SDS011;68857;47.916;106.940;2024-01-30T13:42:21;77.13;;;31.67;;
79401;SDS011;68857;47.916;106.940;2024-01-30T13:44:48;133.35;;;46.33;;
79401;SDS011;68857;47.916;106.940;2024-01-30T13:47:15;111.50;;;40.80;;
79401;SDS011;68857;47.916;106.940;2024-01-30T13:49:44;93.80;;;38.90;;
79401;SDS011;68857;47.916;106.940;2024-01-30T13:52:10;101.45;;;40.35;;
79401;SDS011;68857;47.916;106.940;2024-01-30T13:54:36;125.18;;;40.78;;
79401;SDS011;68857;47.916;106.940;2024-01-30T13:57:03;123.32;;;44.83;;
79401;SDS011;68857;47.916;106.940;2024-01-30T13:59:29;72.55;;;29.20;;
79401;SDS011;68857;47.916;106.940;2024-01-30T14:01:56;55.70;;;25.02;;
79401;SDS011;68857;47.916;106.940;2024-01-30T14:04:22;78.28;;;31.05;;
79401;SDS011;68857;47.916;106.940;2024-01-30T14:06:48;87.97;;;30.77;;
79401;SDS011;68857;47.916;106.940;2024-01-30T14:09:15;80.05;;;32.83;;